Time;durP1;ratioP1;P1;durP2;ratioP2;P2;SDS_P1;SDS_P2;PMS_P1;PMS_P2;Temp;Humidity;BMP_temperature;BMP_pressure;BME280_temperature;BME280_humidity;BME280_pressure;Samples;Min_cycle;Max_cycle;Signal;HPM_P1;HPM_P2
2022/09/27 00:00:06;;;;;;;10.20;5.65;;;;;;;7.89;100.00;99449.84;10365448;28;20617;-78
2022/09/27 00:05:07;;;;;;;10.18;4.78;;;;;;;7.92;100.00;99453.44;10363593;28;22510;-78
2022/09/27 00:10:07;;;;;;;9.45;5.25;;;;;;;7.94;100.00;99456.97;10364901;28;20133;-77
2022/09/27 00:15:11;;;;;;;9.40;5.00;;;;;;;8.01;100.00;99465.03;10366249;28;20067;-78
2022/09/27 00:20:12;;;;;;;11.48;5.68;;;;;;;7.94;100.00;99464.81;10364553;28;20042;-77
2022/09/27 00:25:13;;;;;;;11.32;5.43;;;;;;;7.89;100.00;99463.75;10364432;28;20068;-78
2022/09/27 00:30:14;;;;;;;12.07;5.97;;;;;;;7.82;100.00;99471.31;10366242;28;20042;-77
2022/09/27 00:35:15;;;;;;;14.15;5.60;;;;;;;7.81;100.00;99475.59;10364250;28;20038;-77
2022/09/27 00:40:15;;;;;;;9.70;5.55;;;;;;;7.78;100.00;99479.00;10363712;28;20037;-77
2022/09/27 00:45:16;;;;;;;15.68;7.25;;;;;;;7.80;100.00;99479.03;10362021;28;20052;-77
2022/09/27 00:50:37;;;;;;;13.63;6.43;;;;;;;7.83;100.00;99484.38;10365382;28;20042;-77
2022/09/27 00:55:40;;;;;;;14.48;8.43;;;;;;;7.90;100.00;99486.38;10362808;28;20034;-77
2022/09/27 01:00:44;;;;;;;16.95;9.38;;;;;;;8.00;100.00;99484.09;10363635;28;20037;-78
2022/09/27 01:05:44;;;;;;;13.90;7.10;;;;;;;7.97;100.00;99482.28;10363034;28;20066;-78
2022/09/27 01:11:06;;;;;;;16.02;7.70;;;;;;;7.94;100.00;99485.66;10345580;28;20573;-78
2022/09/27 01:16:28;;;;;;;15.55;7.60;;;;;;;7.87;100.00;99495.81;10321049;28;20072;-78
2022/09/27 01:21:32;;;;;;;11.25;6.53;;;;;;;7.86;100.00;99507.06;10326152;28;20096;-79
2022/09/27 01:27:08;;;;;;;15.77;4.85;;;;;;;7.86;100.00;99496.63;10362020;28;20120;-77
2022/09/27 01:32:20;;;;;;;10.48;4.88;;;;;;;7.82;100.00;99500.81;10361611;28;20034;-78
2022/09/27 01:37:30;;;;;;;8.07;3.95;;;;;;;7.75;100.00;99497.13;10343536;28;20045;-77
2022/09/27 01:42:56;;;;;;;8.80;3.75;;;;;;;7.72;100.00;99507.44;10360030;28;20046;-78
2022/09/27 01:47:58;;;;;;;11.68;2.63;;;;;;;7.63;100.00;99502.75;10331118;28;20087;-78
2022/09/27 01:53:07;;;;;;;7.95;3.17;;;;;;;7.54;100.00;99511.94;10343602;28;20100;-78
2022/09/27 01:58:14;;;;;;;9.63;4.55;;;;;;;7.48;100.00;99502.16;10343580;28;20042;-79
2022/09/27 02:03:17;;;;;;;9.13;3.25;;;;;;;7.46;100.00;99493.41;10360908;28;20117;-79
2022/09/27 02:08:40;;;;;;;7.82;2.65;;;;;;;7.48;100.00;99507.38;10344917;28;20394;-78
2022/09/27 02:13:52;;;;;;;8.32;2.92;;;;;;;7.53;100.00;99515.38;10375715;28;20053;-76
2022/09/27 02:19:17;;;;;;;7.43;2.83;;;;;;;7.51;100.00;99522.25;10357994;28;20573;-77
2022/09/27 02:24:21;;;;;;;10.60;3.35;;;;;;;7.53;100.00;99536.19;10358511;28;20038;-77
2022/09/27 02:29:52;;;;;;;10.25;2.72;;;;;;;7.53;100.00;99529.25;10360623;28;20037;-78
2022/09/27 02:34:54;;;;;;;9.00;2.95;;;;;;;7.50;100.00;99531.75;10357605;28;20065;-78
2022/09/27 02:40:03;;;;;;;6.72;2.38;;;;;;;7.48;100.00;99536.00;10326607;28;20045;-77
2022/09/27 02:45:08;;;;;;;5.82;2.60;;;;;;;7.41;100.00;99541.81;10358042;28;20128;-77
2022/09/27 02:50:37;;;;;;;5.15;2.60;;;;;;;7.16;100.00;99546.03;10343452;28;20042;-78
2022/09/27 02:55:37;;;;;;;7.72;2.35;;;;;;;7.05;100.00;99538.69;10357814;28;20633;-77
2022/09/27 03:00:49;;;;;;;6.03;3.38;;;;;;;7.04;100.00;99541.25;10359702;28;20153;-77
2022/09/27 03:06:02;;;;;;;6.72;1.40;;;;;;;6.99;100.00;99550.56;10359703;28;20083;-78
2022/09/27 03:11:03;;;;;;;3.70;1.50;;;;;;;7.03;100.00;99553.34;10341560;28;20052;-78
2022/09/27 03:16:05;;;;;;;5.35;2.03;;;;;;;6.99;100.00;99547.97;10357806;28;20052;-78
2022/09/27 03:21:05;;;;;;;6.13;1.97;;;;;;;6.96;100.00;99538.31;10341720;28;20486;-78
2022/09/27 03:26:06;;;;;;;4.97;2.70;;;;;;;6.86;100.00;99544.88;10357776;28;20145;-78
2022/09/27 03:31:06;;;;;;;8.60;2.33;;;;;;;6.84;100.00;99548.22;10364599;28;20124;-78
2022/09/27 03:36:07;;;;;;;6.72;1.95;;;;;;;6.94;100.00;99555.56;10365526;28;20500;-78
2022/09/27 03:41:07;;;;;;;3.13;1.25;;;;;;;6.94;100.00;99537.38;10366807;28;20038;-77
2022/09/27 03:46:08;;;;;;;3.95;1.45;;;;;;;6.83;100.00;99531.75;10368115;28;20381;-77
2022/09/27 03:51:11;;;;;;;4.80;1.80;;;;;;;6.75;100.00;99540.94;10363803;28;20044;-77
2022/09/27 03:56:12;;;;;;;12.80;3.55;;;;;;;6.62;100.00;99542.13;10364557;28;20569;-76
2022/09/27 04:01:13;;;;;;;10.77;1.92;;;;;;;6.53;100.00;99540.03;10366234;28;20056;-77
2022/09/27 04:06:13;;;;;;;5.93;3.05;;;;;;;6.43;100.00;99549.13;10365569;28;20569;-77
2022/09/27 04:11:14;;;;;;;6.93;2.28;;;;;;;6.44;100.00;99563.03;10347917;28;20053;-78
2022/09/27 04:16:15;;;;;;;4.78;1.60;;;;;;;6.46;100.00;99557.06;10362596;28;20069;-78
2022/09/27 04:21:15;;;;;;;11.20;1.50;;;;;;;6.49;100.00;99561.53;10348452;28;20677;-79
2022/09/27 04:26:16;;;;;;;9.77;1.75;;;;;;;6.47;100.00;99552.75;10363243;28;20148;-79
2022/09/27 04:31:17;;;;;;;5.82;1.40;;;;;;;6.46;100.00;99557.06;10360902;28;20084;-79
2022/09/27 04:36:27;;;;;;;10.23;5.03;;;;;;;6.53;100.00;99557.31;10362516;28;20045;-79
2022/09/27 04:41:28;;;;;;;4.07;1.30;;;;;;;6.63;100.00;99577.69;10330377;28;20041;-80
2022/09/27 04:46:30;;;;;;;6.63;1.75;;;;;;;6.74;100.00;99581.63;10341504;28;20517;-80
2022/09/27 04:51:30;;;;;;;9.70;5.50;;;;;;;6.81;100.00;99582.81;10361940;28;20034;-77
2022/09/27 04:56:31;;;;;;;6.78;1.63;;;;;;;6.84;100.00;99589.81;10359940;28;20072;-82
2022/09/27 05:01:32;;;;;;;32.20;3.83;;;;;;;6.86;100.00;99588.19;10359670;28;20513;-81
2022/09/27 05:06:32;;;;;;;11.35;3.13;;;;;;;6.89;100.00;99585.72;10360011;28;20080;-81
2022/09/27 05:11:36;;;;;;;5.07;2.33;;;;;;;6.90;100.00;99587.47;10361841;28;20522;-80
2022/09/27 05:16:37;;;;;;;20.17;8.57;;;;;;;6.90;100.00;99587.47;10360485;28;20120;-79
2022/09/27 05:21:37;;;;;;;4.43;1.98;;;;;;;6.94;100.00;99585.91;10357460;28;20547;-79
2022/09/27 05:26:38;;;;;;;7.03;3.30;;;;;;;6.88;100.00;99582.25;10359400;28;20533;-79
2022/09/27 05:31:39;;;;;;;8.90;2.17;;;;;;;6.90;100.00;99579.69;10360583;28;20050;-78
2022/09/27 05:36:39;;;;;;;4.88;1.58;;;;;;;6.88;100.00;99589.13;10360123;28;20144;-78
2022/09/27 05:41:40;;;;;;;15.45;2.03;;;;;;;6.89;100.00;99589.22;10358795;28;20048;-79
2022/09/27 05:46:40;;;;;;;6.88;1.90;;;;;;;6.90;100.00;99593.59;10361397;28;20073;-77
2022/09/27 05:51:41;;;;;;;16.90;6.43;;;;;;;6.89;100.00;99588.31;10334912;28;20161;-77
2022/09/27 05:56:42;;;;;;;12.88;2.92;;;;;;;6.87;100.00;99600.38;10360313;28;20490;-77
2022/09/27 06:01:43;;;;;;;13.15;6.18;;;;;;;6.93;100.00;99600.63;10358399;28;20212;-79
2022/09/27 06:06:44;;;;;;;9.85;2.65;;;;;;;6.90;100.00;99601.41;10360128;28;20560;-80
2022/09/27 06:11:45;;;;;;;4.63;2.20;;;;;;;6.90;100.00;99597.88;10358096;28;20099;-80
2022/09/27 06:16:45;;;;;;;6.85;2.35;;;;;;;6.88;100.00;99613.44;10342311;28;20050;-80
2022/09/27 06:21:49;;;;;;;18.77;2.90;;;;;;;6.81;100.00;99613.09;10359662;28;20125;-80
2022/09/27 06:26:50;;;;;;;6.57;1.45;;;;;;;6.76;100.00;99616.41;10358488;28;20100;-82
2022/09/27 06:31:50;;;;;;;1.70;0.95;;;;;;;6.83;100.00;99612.38;10356678;28;20120;-78
2022/09/27 06:36:51;;;;;;;12.98;2.78;;;;;;;6.92;100.00;99616.19;10356155;28;20080;-78
2022/09/27 06:41:56;;;;;;;5.82;1.10;;;;;;;6.99;100.00;99619.09;10357715;28;20034;-78
2022/09/27 06:46:56;;;;;;;2.08;0.65;;;;;;;7.03;100.00;99618.38;10356097;28;20058;-81
2022/09/27 06:51:57;;;;;;;4.30;0.95;;;;;;;7.05;100.00;99624.53;10341618;28;20132;-81
2022/09/27 06:56:57;;;;;;;3.63;1.25;;;;;;;7.27;100.00;99622.84;10358555;28;20038;-82
2022/09/27 07:01:59;;;;;;;2.20;0.65;;;;;;;7.55;100.00;99620.47;10359950;28;20658;-82
2022/09/27 07:07:04;;;;;;;3.50;1.10;;;;;;;7.68;100.00;99624.44;10355702;28;20109;-81
2022/09/27 07:12:05;;;;;;;3.65;1.15;;;;;;;7.87;100.00;99631.25;10324364;28;20445;-81
2022/09/27 07:17:06;;;;;;;2.78;0.95;;;;;;;7.82;100.00;99636.28;10357149;28;20034;-79
2022/09/27 07:22:06;;;;;;;4.47;1.10;;;;;;;7.85;100.00;99643.34;10356173;28;20620;-79
2022/09/27 07:27:07;;;;;;;2.55;1.35;;;;;;;7.93;100.00;99653.22;10357334;28;20044;-81
2022/09/27 07:32:07;;;;;;;5.30;1.73;;;;;;;8.19;100.00;99660.28;10358811;28;20402;-79
2022/09/27 07:37:08;;;;;;;3.55;1.52;;;;;;;8.40;100.00;99660.16;10355079;28;20129;-78
2022/09/27 07:42:09;;;;;;;5.00;1.58;;;;;;;8.40;100.00;99662.78;10355277;28;20391;-78
2022/09/27 07:47:09;;;;;;;4.35;2.20;;;;;;;8.50;100.00;99666.66;10357659;28;20041;-79
2022/09/27 07:52:10;;;;;;;6.40;4.07;;;;;;;8.49;100.00;99665.75;10358354;28;20133;-79
2022/09/27 07:57:11;;;;;;;4.85;3.45;;;;;;;8.51;100.00;99663.22;10357996;28;20500;-78
2022/09/27 08:02:13;;;;;;;8.20;3.42;;;;;;;8.82;100.00;99666.94;10359689;28;20085;-77
2022/09/27 08:07:14;;;;;;;11.00;6.30;;;;;;;9.07;100.00;99666.06;10341340;28;20041;-79
2022/09/27 08:12:15;;;;;;;5.68;2.80;;;;;;;9.15;100.00;99673.25;10356766;28;20034;-77
2022/09/27 08:17:16;;;;;;;4.72;3.55;;;;;;;9.09;100.00;99676.56;10362185;28;20042;-77
2022/09/27 08:22:16;;;;;;;8.55;2.47;;;;;;;9.52;100.00;99674.50;10340597;28;20540;-79
2022/09/27 08:27:17;;;;;;;6.25;3.33;;;;;;;10.33;100.00;99675.25;10347353;28;20033;-79
2022/09/27 08:32:18;;;;;;;14.18;3.35;;;;;;;10.82;93.38;99681.03;10363512;28;20130;-79
2022/09/27 08:37:19;;;;;;;3.45;2.60;;;;;;;10.71;93.84;99687.69;10361928;28;20041;-80
2022/09/27 08:42:26;;;;;;;7.22;3.15;;;;;;;10.39;93.07;99683.31;10362372;28;20045;-81
2022/09/27 08:47:48;;;;;;;5.50;3.00;;;;;;;9.91;95.46;99680.97;10363287;28;20046;-79
2022/09/27 08:53:02;;;;;;;8.73;4.03;;;;;;;9.55;99.46;99699.00;10344184;28;20042;-78
2022/09/27 08:58:18;;;;;;;5.45;2.58;;;;;;;9.35;99.61;99702.69;10362216;28;20101;-80
2022/09/27 09:03:19;;;;;;;5.45;2.50;;;;;;;9.07;100.00;99704.34;10346938;28;20100;-79
2022/09/27 09:08:30;;;;;;;4.65;2.65;;;;;;;8.82;100.00;99704.34;10344723;28;20072;-79
2022/09/27 09:14:08;;;;;;;7.50;4.00;;;;;;;8.69;100.00;99709.94;10361044;28;20037;-81
2022/09/27 09:19:27;;;;;;;12.32;4.97;;;;;;;8.53;100.00;99708.50;10342510;28;20452;-81
2022/09/27 09:24:37;;;;;;;9.82;5.15;;;;;;;8.56;100.00;99703.41;10357890;28;20041;-80
2022/09/27 09:30:10;;;;;;;12.10;6.00;;;;;;;8.57;100.00;99704.28;10347588;28;20184;-81
2022/09/27 09:35:12;;;;;;;;;;;;;;;8.75;100.00;99693.63;10327196;28;20058;-81
2022/09/27 09:40:25;;;;;;;12.40;5.60;;;;;;;8.63;100.00;99688.84;10358645;28;19925;-79
2022/09/27 09:45:29;;;;;;;11.73;5.80;;;;;;;8.68;100.00;99678.59;10354859;28;20265;-79
2022/09/27 09:50:38;;;;;;;13.80;6.72;;;;;;;8.70;100.00;99687.38;10358852;28;20065;-79
2022/09/27 09:55:41;;;;;;;16.27;7.15;;;;;;;8.94;100.00;99685.63;10358011;28;20049;-79
2022/09/27 10:00:41;;;;;;;16.23;6.93;;;;;;;9.25;100.00;99673.63;10341947;28;20042;-78
2022/09/27 10:05:43;;;;;;;15.90;7.22;;;;;;;9.54;100.00;99685.88;10343047;28;20066;-78
2022/09/27 10:10:43;;;;;;;9.55;6.30;;;;;;;10.08;100.00;99678.84;10342716;28;20049;-78
2022/09/27 10:16:02;;;;;;;9.80;6.28;;;;;;;10.42;100.00;99677.28;10360039;28;20034;-78
2022/09/27 10:21:09;;;;;;;8.77;5.90;;;;;;;10.29;100.00;99684.72;10339714;28;20037;-78
2022/09/27 10:26:10;;;;;;;8.98;5.75;;;;;;;10.04;100.00;99684.81;10343406;28;20076;-80
2022/09/27 10:31:16;;;;;;;7.50;5.07;;;;;;;9.89;100.00;99682.63;10342773;28;20169;-80
2022/09/27 10:36:28;;;;;;;9.40;5.97;;;;;;;10.36;100.00;99675.34;10358224;28;20057;-80
2022/09/27 10:41:33;;;;;;;11.82;5.90;;;;;;;10.45;98.92;99676.50;10343358;28;20046;-80
2022/09/27 10:46:34;;;;;;;8.27;6.03;;;;;;;10.34;100.00;99668.28;10341529;28;20026;-80
2022/09/27 10:51:34;;;;;;;8.60;5.28;;;;;;;10.75;99.67;99678.22;10358947;28;20120;-79
2022/09/27 10:56:35;;;;;;;7.07;4.75;;;;;;;11.40;92.82;99675.56;10358390;28;20371;-79
2022/09/27 11:01:44;;;;;;;7.60;5.85;;;;;;;11.11;94.32;99680.06;10323118;28;20046;-82
2022/09/27 11:06:47;;;;;;;6.75;3.63;;;;;;;10.30;96.15;99675.16;10338499;28;20092;-82
2022/09/27 11:11:47;;;;;;;4.80;3.70;;;;;;;10.61;98.21;99680.41;10340468;28;20115;-82
2022/09/27 11:16:59;;;;;;;7.03;3.85;;;;;;;10.92;96.38;99674.31;10348696;28;20120;-81
2022/09/27 11:22:20;;;;;;;5.43;2.88;;;;;;;12.60;91.16;99671.28;10356576;28;20046;-81
2022/09/27 11:27:59;;;;;;;5.03;3.03;;;;;;;12.81;85.41;99669.06;10355830;28;20104;-82
2022/09/27 11:33:30;;;;;;;5.38;3.28;;;;;;;11.69;87.90;99674.50;10213986;28;20356;-81
2022/09/27 11:38:54;;;;;;;4.43;3.63;;;;;;;11.17;90.91;99674.97;10356851;28;20037;-81
2022/09/27 11:44:06;;;;;;;4.18;2.78;;;;;;;10.12;93.79;99693.78;10354268;28;20041;-80
2022/09/27 11:49:37;;;;;;;6.53;4.68;;;;;;;9.25;98.84;99698.84;10357756;28;20049;-82
2022/09/27 11:55:15;;;;;;;4.55;3.08;;;;;;;8.56;100.00;99699.88;10361387;28;20449;-80
2022/09/27 12:00:17;;;;;;;3.90;1.77;;;;;;;8.13;100.00;99688.72;10363130;28;20041;-79
2022/09/27 12:05:32;;;;;;;2.00;1.10;;;;;;;8.25;100.00;99689.19;10361216;28;20539;-78
2022/09/27 12:10:33;;;;;;;3.92;2.25;;;;;;;8.60;100.00;99674.00;10345568;28;20026;-79
2022/09/27 12:15:35;;;;;;;3.60;2.10;;;;;;;8.92;100.00;99674.25;10344663;28;20034;-78
2022/09/27 12:20:35;;;;;;;4.30;3.17;;;;;;;9.32;100.00;99669.50;10347051;28;20042;-80
2022/09/27 12:25:38;;;;;;;1.83;1.13;;;;;;;9.67;100.00;99676.72;10345873;28;20026;-80
2022/09/27 12:30:41;;;;;;;4.00;1.73;;;;;;;9.77;100.00;99665.72;10362825;28;20041;-80
2022/09/27 12:35:48;;;;;;;7.10;2.90;;;;;;;10.03;100.00;99664.75;10362059;28;20502;-79
2022/09/27 12:40:50;;;;;;;2.33;1.35;;;;;;;10.44;99.33;99659.91;10333721;28;20046;-78
2022/09/27 12:46:03;;;;;;;3.05;2.03;;;;;;;11.54;94.04;99659.28;10324192;28;20101;-80
2022/09/27 12:51:13;;;;;;;3.45;1.75;;;;;;;12.84;90.85;99658.63;10351936;28;20041;-79
2022/09/27 12:56:35;;;;;;;2.63;1.65;;;;;;;13.16;84.43;99650.44;10357797;28;20046;-78
2022/09/27 13:01:42;;;;;;;2.65;1.35;;;;;;;14.13;79.62;99650.22;10363172;28;20062;-77
2022/09/27 13:06:51;;;;;;;2.63;1.35;;;;;;;14.33;77.17;99648.72;10362675;28;20042;-78
2022/09/27 13:12:11;;;;;;;2.78;1.83;;;;;;;14.64;77.85;99656.13;10361843;28;20056;-78
2022/09/27 13:17:39;;;;;;;5.95;1.77;;;;;;;14.98;70.13;99649.50;10359580;28;20128;-77
2022/09/27 13:22:39;;;;;;;3.58;1.42;;;;;;;15.74;69.02;99643.13;10361190;28;20050;-78
2022/09/27 13:27:40;;;;;;;3.10;1.30;;;;;;;13.67;70.29;99658.31;10362526;28;20128;-78
2022/09/27 13:33:09;;;;;;;6.40;1.38;;;;;;;11.83;81.31;99654.75;10355154;28;20038;-77
2022/09/27 13:38:22;;;;;;;4.35;1.65;;;;;;;11.15;86.99;99661.81;10362036;28;20390;-77
2022/09/27 13:43:35;;;;;;;5.80;2.15;;;;;;;11.08;86.69;99667.75;10360695;28;20437;-78
2022/09/27 13:48:56;;;;;;;3.40;2.00;;;;;;;11.06;90.97;99666.81;10359433;28;20191;-77
2022/09/27 13:53:59;;;;;;;7.22;1.80;;;;;;;10.95;90.81;99656.09;10359028;28;20505;-77
2022/09/27 13:59:29;;;;;;;5.55;2.15;;;;;;;11.06;88.94;99651.13;10358713;28;20048;-77
2022/09/27 14:04:34;;;;;;;5.05;2.28;;;;;;;10.97;91.02;99653.50;10352524;28;20042;-79
2022/09/27 14:09:37;;;;;;;10.25;2.05;;;;;;;10.57;90.58;99648.94;10358205;28;20130;-77
2022/09/27 14:14:38;;;;;;;5.88;2.78;;;;;;;10.01;93.81;99659.50;10341389;28;20038;-77
2022/09/27 14:19:43;;;;;;;5.20;2.35;;;;;;;9.42;97.53;99668.09;10339615;28;20117;-77
2022/09/27 14:24:46;;;;;;;6.60;2.97;;;;;;;8.75;100.00;99665.81;10341344;28;20034;-78
2022/09/27 14:29:53;;;;;;;6.55;3.63;;;;;;;8.56;100.00;99659.06;10339243;28;20046;-81
2022/09/27 14:35:06;;;;;;;3.95;1.92;;;;;;;8.32;100.00;99644.25;10356593;28;20071;-78
2022/09/27 14:40:18;;;;;;;3.20;1.30;;;;;;;8.22;100.00;99632.59;10360214;28;20042;-78
2022/09/27 14:45:22;;;;;;;3.92;1.50;;;;;;;8.36;100.00;99625.28;10339100;28;20573;-78
2022/09/27 14:50:24;;;;;;;3.25;1.20;;;;;;;8.45;100.00;99635.16;10356900;28;20045;-78
2022/09/27 14:55:28;;;;;;;2.67;1.35;;;;;;;8.70;100.00;99643.88;10341235;28;20125;-78
2022/09/27 15:00:31;;;;;;;2.25;1.73;;;;;;;8.85;100.00;99650.47;10339869;28;20073;-78
2022/09/27 15:05:31;;;;;;;;;;;;;;;8.94;100.00;99645.59;10356920;28;20069;-77
2022/09/27 15:10:33;;;;;;;3.00;1.50;;;;;;;8.92;100.00;99649.88;10358170;28;20122;-81
2022/09/27 15:15:35;;;;;;;2.58;1.60;;;;;;;8.84;100.00;99647.00;10339892;28;20049;-78
2022/09/27 15:20:35;;;;;;;8.73;5.27;;;;;;;8.68;100.00;99647.28;10341331;28;20621;-77
2022/09/27 15:25:42;;;;;;;9.68;3.88;;;;;;;8.55;100.00;99656.38;10357389;28;20104;-78
2022/09/27 15:30:57;;;;;;;5.70;2.05;;;;;;;8.40;100.00;99646.25;10365133;28;20042;-80
2022/09/27 15:36:01;;;;;;;3.47;1.80;;;;;;;8.33;100.00;99647.75;10359120;28;20034;-81
2022/09/27 15:41:05;;;;;;;3.10;1.73;;;;;;;8.35;100.00;99641.75;10322542;28;20034;-77
2022/09/27 15:46:21;;;;;;;7.40;2.30;;;;;;;8.29;100.00;99640.63;10361458;28;20037;-80
2022/09/27 15:51:40;;;;;;;3.85;2.30;;;;;;;8.20;100.00;99630.78;10363800;28;20037;-79
2022/09/27 15:56:41;;;;;;;9.50;3.42;;;;;;;8.26;100.00;99628.38;10349405;28;20045;-77
2022/09/27 16:01:41;;;;;;;4.65;2.15;;;;;;;8.29;100.00;99627.59;10361553;28;20135;-79
2022/09/27 16:06:43;;;;;;;7.95;3.88;;;;;;;8.28;100.00;99618.91;10363634;28;20508;-78
2022/09/27 16:11:45;;;;;;;4.72;2.35;;;;;;;8.25;100.00;99625.72;10361137;28;20398;-78
2022/09/27 16:16:49;;;;;;;6.47;2.47;;;;;;;8.13;100.00;99614.00;10343646;28;20046;-78
2022/09/27 16:21:49;;;;;;;6.38;2.80;;;;;;;8.10;100.00;99602.59;10345002;28;20049;-77
2022/09/27 16:26:50;;;;;;;7.43;2.95;;;;;;;7.88;100.00;99594.84;10362065;28;20489;-78
2022/09/27 16:31:52;;;;;;;4.72;2.50;;;;;;;7.82;100.00;99609.34;10362177;28;20073;-77
2022/09/27 16:36:52;;;;;;;9.05;3.97;;;;;;;7.73;100.00;99599.47;10361290;28;20038;-78
2022/09/27 16:41:53;;;;;;;6.70;2.97;;;;;;;7.69;100.00;99590.66;10358841;28;20065;-79
2022/09/27 16:46:54;;;;;;;6.78;3.00;;;;;;;7.61;100.00;99587.72;10363226;28;20045;-78
2022/09/27 16:52:00;;;;;;;5.80;3.03;;;;;;;7.61;100.00;99592.94;10357529;28;20069;-78
2022/09/27 16:57:01;;;;;;;8.02;3.42;;;;;;;7.56;100.00;99577.97;10347431;28;20026;-79
2022/09/27 17:02:04;;;;;;;7.38;3.03;;;;;;;7.50;100.00;99578.63;10352217;28;20038;-78
2022/09/27 17:07:04;;;;;;;4.15;2.70;;;;;;;7.46;100.00;99576.72;10359976;28;20038;-78
2022/09/27 17:12:05;;;;;;;14.68;5.65;;;;;;;7.43;100.00;99568.78;10361576;28;20074;-78
2022/09/27 17:17:06;;;;;;;10.00;4.25;;;;;;;7.34;100.00;99569.31;10361483;28;20045;-78
2022/09/27 17:22:07;;;;;;;7.57;3.22;;;;;;;7.22;100.00;99556.69;10360468;28;20030;-80
2022/09/27 17:27:07;;;;;;;7.07;3.13;;;;;;;7.02;100.00;99555.91;10359687;28;20030;-78
2022/09/27 17:32:08;;;;;;;6.75;2.72;;;;;;;6.90;100.00;99549.38;10358772;28;20038;-79
2022/09/27 17:37:09;;;;;;;6.07;3.20;;;;;;;6.85;100.00;99537.00;10359686;28;20152;-79
2022/09/27 17:42:11;;;;;;;8.85;4.25;;;;;;;6.81;100.00;99530.78;10358116;28;20041;-81
2022/09/27 17:52:33;;;;;;;12.23;4.18;;;;;;;6.82;100.00;99519.56;10360287;28;20061;-80
2022/09/27 17:57:57;;;;;;;9.35;3.58;;;;;;;6.86;100.00;99523.16;10357974;28;20093;-80
2022/09/27 18:02:59;;;;;;;8.30;3.47;;;;;;;6.86;100.00;99513.66;10357998;28;20038;-78
2022/09/27 18:07:59;;;;;;;7.50;4.55;;;;;;;6.88;100.00;99511.09;10359633;28;20447;-77
2022/09/27 18:13:00;;;;;;;9.65;3.97;;;;;;;6.90;100.00;99504.25;10359900;28;20133;-78
2022/09/27 18:18:01;;;;;;;10.90;5.05;;;;;;;6.95;100.00;99504.47;10344806;28;20077;-78
2022/09/27 18:23:01;;;;;;;8.25;3.85;;;;;;;6.94;100.00;99498.34;10361364;28;20050;-78
2022/09/27 18:28:02;;;;;;;8.57;5.07;;;;;;;6.96;100.00;99488.03;10359820;28;20064;-77
2022/09/27 18:33:03;;;;;;;11.70;4.78;;;;;;;7.08;100.00;99477.19;10357397;28;20124;-80
2022/09/27 18:38:03;;;;;;;12.10;6.00;;;;;;;7.19;100.00;99460.28;10357404;28;20034;-80
2022/09/27 18:43:04;;;;;;;13.38;6.22;;;;;;;7.25;100.00;99464.88;10356534;28;20131;-79
2022/09/27 18:48:04;;;;;;;10.35;5.95;;;;;;;7.24;100.00;99456.16;10357458;28;20046;-80
2022/09/27 18:53:05;;;;;;;13.57;5.60;;;;;;;7.38;100.00;99434.97;10358831;28;20034;-80
2022/09/27 18:58:06;;;;;;;15.02;5.80;;;;;;;7.39;100.00;99453.25;10355067;28;20120;-79
2022/09/27 19:03:07;;;;;;;21.35;10.27;;;;;;;7.53;100.00;99487.59;10341339;28;20042;-77
2022/09/27 19:08:08;;;;;;;10.75;3.88;;;;;;;7.29;100.00;99500.59;10357188;28;20045;-77
2022/09/27 19:13:09;;;;;;;3.28;2.50;;;;;;;6.94;100.00;99489.69;10357468;28;20034;-78
2022/09/27 19:18:09;;;;;;;4.97;1.90;;;;;;;6.64;100.00;99500.59;10358228;28;20549;-78
2022/09/27 19:23:10;;;;;;;3.92;1.80;;;;;;;6.47;100.00;99504.25;10358169;28;20072;-77
2022/09/27 19:28:10;;;;;;;5.53;2.40;;;;;;;6.38;100.00;99508.19;10356341;28;20470;-78
2022/09/27 19:33:11;;;;;;;5.25;3.50;;;;;;;6.26;100.00;99503.34;10358977;28;20193;-77
2022/09/27 19:38:12;;;;;;;5.38;3.38;;;;;;;6.30;100.00;99515.63;10359106;28;20509;-77
2022/09/27 19:43:12;;;;;;;8.45;2.78;;;;;;;6.30;100.00;99518.25;10359773;28;20038;-78
2022/09/27 19:48:13;;;;;;;9.95;3.63;;;;;;;6.30;100.00;99536.44;10355994;28;20125;-77
2022/09/27 19:53:14;;;;;;;4.78;3.05;;;;;;;6.26;100.00;99535.41;10358611;28;20121;-77
2022/09/27 19:58:14;;;;;;;7.60;3.03;;;;;;;6.27;100.00;99525.91;10360886;28;20052;-78
2022/09/27 20:03:15;;;;;;;7.60;3.70;;;;;;;6.36;100.00;99518.50;10348227;28;20510;-77
2022/09/27 20:08:15;;;;;;;10.73;3.63;;;;;;;6.28;100.00;99530.28;10313526;28;20041;-77
2022/09/27 20:13:16;;;;;;;4.93;2.13;;;;;;;6.21;100.00;99499.66;10357499;28;20038;-77
2022/09/27 20:18:16;;;;;;;3.85;2.20;;;;;;;6.14;100.00;99499.38;10365104;28;20069;-77
2022/09/27 20:23:18;;;;;;;5.32;2.65;;;;;;;6.12;100.00;99506.22;10364550;28;20053;-76
2022/09/27 20:28:19;;;;;;;;;;;;;;;6.09;100.00;99494.84;10362192;28;20069;-77
2022/09/27 20:38:40;;;;;;;9.35;2.60;;;;;;;6.05;100.00;99462.63;10323360;28;20039;-78
2022/09/27 20:43:40;;;;;;;5.32;2.60;;;;;;;5.98;100.00;99442.38;10307399;28;20035;-78
2022/09/27 20:48:42;;;;;;;7.63;3.95;;;;;;;6.06;100.00;99446.22;10348925;28;20565;-79
2022/09/27 20:53:43;;;;;;;4.63;2.90;;;;;;;6.01;100.00;99439.94;10331468;28;20041;-79
2022/09/27 20:58:44;;;;;;;8.90;3.30;;;;;;;5.96;100.00;99442.31;10357267;28;20117;-78
2022/09/27 21:03:45;;;;;;;6.75;4.10;;;;;;;5.97;100.00;99438.91;10364232;28;20144;-78
2022/09/27 21:08:46;;;;;;;6.35;4.00;;;;;;;6.00;100.00;99419.94;10362626;28;20038;-78
2022/09/27 21:13:47;;;;;;;8.00;3.88;;;;;;;5.98;100.00;99429.38;10363934;28;20081;-78
2022/09/27 21:18:49;;;;;;;5.97;4.13;;;;;;;5.94;100.00;99427.47;10345990;28;20034;-79
2022/09/27 21:23:57;;;;;;;7.75;4.38;;;;;;;5.91;100.00;99416.94;10361260;28;20049;-79
2022/09/27 21:28:59;;;;;;;7.53;4.50;;;;;;;5.94;100.00;99417.09;10347278;28;20125;-79
2022/09/27 21:34:01;;;;;;;7.20;5.45;;;;;;;5.88;100.00;99403.03;10361895;28;20034;-79
2022/09/27 21:39:01;;;;;;;10.50;5.30;;;;;;;5.88;100.00;99412.53;10344493;28;20042;-80
2022/09/27 21:44:03;;;;;;;10.85;5.45;;;;;;;5.78;100.00;99398.25;10360766;28;20034;-79
2022/09/27 21:49:03;;;;;;;9.48;5.50;;;;;;;5.66;100.00;99397.72;10360022;28;20414;-79
2022/09/27 21:54:06;;;;;;;13.20;6.32;;;;;;;5.50;100.00;99399.63;10361241;28;20072;-79
2022/09/27 21:59:09;;;;;;;10.95;5.97;;;;;;;5.42;100.00;99401.91;10343408;28;20048;-79
2022/09/27 22:04:09;;;;;;;9.10;5.75;;;;;;;5.36;100.00;99399.03;10361522;28;20047;-77
2022/09/27 22:09:12;;;;;;;10.07;5.38;;;;;;;5.20;100.00;99400.03;10342005;28;20046;-79
2022/09/27 22:14:14;;;;;;;11.25;7.10;;;;;;;5.23;100.00;99397.56;10344226;28;20046;-78
2022/09/27 22:19:15;;;;;;;10.50;6.65;;;;;;;5.34;100.00;99392.88;10359171;28;20049;-79
2022/09/27 22:24:16;;;;;;;11.75;7.53;;;;;;;5.41;100.00;99388.84;10360614;28;20073;-79
2022/09/27 22:29:17;;;;;;;9.75;6.55;;;;;;;5.43;100.00;99382.91;10360224;28;20121;-79
2022/09/27 22:34:27;;;;;;;14.23;8.65;;;;;;;5.45;100.00;99377.78;10360149;28;20038;-79
2022/09/27 22:39:28;;;;;;;15.13;8.43;;;;;;;5.46;100.00;99387.34;10359204;28;20048;-79
2022/09/27 22:44:30;;;;;;;7.57;5.07;;;;;;;5.43;100.00;99382.91;10358359;28;20038;-79
2022/09/27 22:49:30;;;;;;;12.00;7.85;;;;;;;5.27;100.00;99390.84;10359072;28;20490;-78
2022/09/27 22:54:31;;;;;;;14.85;6.32;;;;;;;5.06;100.00;99393.31;10342942;28;20140;-79
2022/09/27 22:59:31;;;;;;;16.73;7.30;;;;;;;4.92;100.00;99388.38;10358207;28;20038;-79
2022/09/27 23:04:32;;;;;;;10.88;6.55;;;;;;;4.80;100.00;99387.81;10360106;28;20124;-79
2022/09/27 23:09:33;;;;;;;15.10;6.85;;;;;;;4.75;100.00;99395.38;10357367;28;20470;-79
2022/09/27 23:14:33;;;;;;;12.70;6.00;;;;;;;4.68;100.00;99398.50;10359153;28;20041;-79
2022/09/27 23:19:34;;;;;;;8.60;6.55;;;;;;;4.66;100.00;99389.78;10340489;28;20044;-78
2022/09/27 23:24:34;;;;;;;9.18;5.57;;;;;;;4.65;100.00;99388.88;10359931;28;20445;-77
2022/09/27 23:29:35;;;;;;;11.68;6.75;;;;;;;4.52;100.00;99392.59;10359052;28;20048;-80
2022/09/27 23:34:35;;;;;;;13.48;8.52;;;;;;;4.46;100.00;99389.69;10326015;28;20371;-80
2022/09/27 23:39:37;;;;;;;9.68;6.03;;;;;;;4.49;100.00;99381.19;10359119;28;20541;-79
2022/09/27 23:44:37;;;;;;;30.52;7.85;;;;;;;4.55;100.00;99374.59;10359316;28;20049;-80